Jiuzhen, China
Current Conditions -  °F | °C
As of 6:00 PM on Sunday 25 Jan 2015 (Local Time) from ZSAM Reporting Station
Haze Haze  
Wind Chill: 57°   Ceiling: 2600
Heat Index: 57°   Visibility: 2.3mi
Dew Point: 57°   Wind: 2mph
Humidity: 100%   Direction: NA
Pressure: 30.12"   Gusts: NA
Location:  24.05°N, 117.72°E
Report Text: ZSAM 251000Z VRB01MPS 3800 BR BKN026 OVC060 14/14 Q1020 NOSIG
Loading
Personal Weather Stations






























Interactive Weather Map New forecast layout! Learn more

10-Day Weather Forecast

Advertisements
Track Severe Weather on mobile